EGAA/BFS METAR and TAF weather

Enter ICAO airport designator
Station Type Date Time Source
EGAA METAR 2020/04/04 20:20 UTC NOAA

EGAA 042020Z 15009KT CAVOK 08/06 Q1010


Station Type Date Time Source
EGAA Decoded METAR 2020/04/04 20:20 UTC NOAA

Belfast / Aldergrove Airport, United Kingdom (EGAA) 54-39N 006-13W 0M
Apr 04, 2020 - 04:20 PM EDT / 2020.04.04 2020 UTC
Wind: from the SSE (150 degrees) at 10 MPH (9 KT):0
Visibility: greater than 7 mile(s):0
Temperature: 46 F (8 C)
Dew Point: 42 F (6 C)
Relative Humidity: 87%
Pressure (altimeter): 29.83 in. Hg (1010 hPa)
ob: EGAA 042020Z 15009KT CAVOK 08/06 Q1010
cycle: 20

Station Type Date Time Source
EGAA TAF 2020/04/04 18:09 UTC NOAA

TAF TAF EGAA 041701Z 0418/0518 16012KT 9999 SCT035
TEMPO 0418/0422 16015G25KT
BECMG 0422/0501 16018G28KT
BECMG 0510/0514 15023G38KT
TEMPO 0515/0518 6000 RA BKN012

Example: see airport list